|

機場天氣預報 (TAF)

機場天氣預報 (TAF) 載述關於某個機場在預測期內預料會出現的氣象要素。

香港天文台在 17 年 03 月 28 日 07 時 00 分最新發出的香港國際機場天氣預報

TAF VHHH 272300Z 2800/2906 10010KT 9999 FEW025 SCT035 TX25/2806Z TX26/2906Z TN20/2823Z TEMPO 2800/2806 09015G25KT=

(下次更新時間:17年03月28日13時00分)

機場天氣預報電碼經解碼後:-

香港天文台發出 2017 年 03 月 28 日 00 協調世界時 至 2017 年 03 月 29 日 06 協調世界時 的機場天氣預報:
 

時間(協調世界時) 能見度 天氣狀況 雲層 雲層高度
2017 年 03 月 28 日 00 時 至 2017 年 03 月 29 日 06 時 東風 (100 o) 10 海里/小時 10 公里以上 無重要天氣狀況
1-2
3-4
2500 呎
3500 呎
2017 年 03 月 28 日 00 時 至 06 時 期間間中 東風 (090 o) 15 海里/小時,陣風達 25 海里/小時 10 公里以上 無重要天氣狀況
1-2
3-4
2500 呎
3500 呎

時間(協調世界時) 氣溫
2017 年 03 月 28 日 06 時
最高25 oC
2017 年 03 月 29 日 06 時
最高26 oC
2017 年 03 月 28 日 23 時
最低20 oC

份: 雲層是以估計天空被雲遮蔽之總面積來評定。把天空分為八份,1 份即是八份之一的天空被雲遮蔽,2 份即是八份之二的天空被雲遮蔽,如此類推。
  0 份 = 天朗氣清,1-2 份 = 稀薄雲層,3-4 份 = 零散雲層,5-7 份 = 疏鬆雲層,8 份 = 天色陰暗。
若想進一步瞭解機場天氣預報(TAF)的編碼,請參看剖析TAF電碼的意義
若想進一步瞭解雲,請參看香港常見的雲
 
香港國際機場航空天氣報告資料 本港地區航空天氣預報
 
版權及聲明